createdAt,value
2018-07-24T00:00:49.532Z,22.80
2018-07-24T00:01:49.536Z,22.78
2018-07-24T00:02:51.027Z,22.62
2018-07-24T00:03:49.527Z,22.55
2018-07-24T00:04:49.534Z,22.60
2018-07-24T00:05:49.532Z,22.51
2018-07-24T00:06:49.533Z,22.57
2018-07-24T00:07:49.540Z,22.54
2018-07-24T00:08:49.531Z,22.54
2018-07-24T00:09:49.528Z,22.53
2018-07-24T00:10:51.078Z,22.51
2018-07-24T00:11:49.532Z,22.45
2018-07-24T00:12:49.525Z,22.39
2018-07-24T00:13:49.526Z,22.44
2018-07-24T00:14:49.529Z,22.47
2018-07-24T00:15:49.536Z,22.47
2018-07-24T00:16:49.534Z,22.57
2018-07-24T00:17:49.530Z,22.38
2018-07-24T00:18:49.527Z,22.29
2018-07-24T00:19:49.533Z,22.29
2018-07-24T00:20:49.529Z,22.28
2018-07-24T00:21:49.530Z,22.30
2018-07-24T00:22:49.530Z,22.35
2018-07-24T00:23:49.528Z,22.38
2018-07-24T00:24:49.526Z,22.28
2018-07-24T00:25:49.535Z,22.25
2018-07-24T00:26:49.532Z,22.20
2018-07-24T00:27:49.533Z,22.26
2018-07-24T00:28:49.530Z,22.20
2018-07-24T00:29:49.532Z,22.25
2018-07-24T00:30:49.535Z,22.25
2018-07-24T00:31:49.544Z,22.18
2018-07-24T00:32:49.532Z,22.10
2018-07-24T00:33:49.527Z,22.14
2018-07-24T00:34:49.528Z,21.99
2018-07-24T00:35:49.527Z,22.11
2018-07-24T00:36:49.527Z,21.98
2018-07-24T00:37:49.526Z,21.95
2018-07-24T00:38:49.531Z,21.96
2018-07-24T00:39:54.049Z,21.92
2018-07-24T00:40:49.524Z,21.98
2018-07-24T00:41:49.528Z,21.98
2018-07-24T00:42:49.531Z,21.95
2018-07-24T00:43:49.526Z,22.02
2018-07-24T00:44:49.526Z,22.00
2018-07-24T00:45:49.530Z,21.99
2018-07-24T00:46:49.550Z,21.98
2018-07-24T00:47:49.528Z,22.06
2018-07-24T00:48:49.533Z,22.06
2018-07-24T00:49:49.528Z,22.06
2018-07-24T00:50:49.528Z,22.13
2018-07-24T00:51:49.542Z,22.11
2018-07-24T00:52:49.519Z,22.11
2018-07-24T00:53:49.528Z,22.10
2018-07-24T00:54:49.524Z,22.13
2018-07-24T00:55:49.535Z,22.10
2018-07-24T00:56:49.540Z,22.13
2018-07-24T00:57:49.524Z,22.22
2018-07-24T00:58:49.536Z,22.20
2018-07-24T00:59:49.525Z,22.22
2018-07-24T01:00:49.529Z,22.20
2018-07-24T01:01:49.544Z,22.25
2018-07-24T01:02:49.518Z,22.23
2018-07-24T01:03:49.532Z,22.25
2018-07-24T01:04:49.519Z,22.22
2018-07-24T01:05:49.539Z,22.22
2018-07-24T01:06:49.522Z,22.20
2018-07-24T01:07:49.539Z,22.18
2018-07-24T01:08:49.520Z,22.22
2018-07-24T01:09:49.515Z,22.15
2018-07-24T01:10:49.537Z,22.25
2018-07-24T01:11:49.514Z,22.22
2018-07-24T01:12:49.522Z,22.22
2018-07-24T01:13:49.528Z,22.20
2018-07-24T01:14:49.520Z,22.10
2018-07-24T01:15:49.515Z,22.20
2018-07-24T01:16:49.530Z,22.14
2018-07-24T01:17:49.510Z,22.20
2018-07-24T01:18:49.515Z,22.13
2018-07-24T01:19:49.509Z,22.18
2018-07-24T01:20:49.511Z,22.22
2018-07-24T01:21:49.509Z,22.15
2018-07-24T01:22:49.518Z,22.13
2018-07-24T01:23:49.509Z,22.13
2018-07-24T01:24:49.512Z,22.11
2018-07-24T01:25:49.508Z,22.18
2018-07-24T01:26:49.516Z,22.22
2018-07-24T01:27:49.506Z,22.10
2018-07-24T01:28:49.517Z,22.11
2018-07-24T01:29:49.510Z,22.25
2018-07-24T01:30:49.506Z,22.20
2018-07-24T01:31:49.508Z,22.14
2018-07-24T01:32:49.506Z,22.18
2018-07-24T01:33:49.506Z,22.13
2018-07-24T01:34:49.515Z,22.18
2018-07-24T01:35:49.505Z,22.08
2018-07-24T01:36:49.508Z,22.20
2018-07-24T01:37:49.503Z,22.15
2018-07-24T01:38:49.506Z,22.13
2018-07-24T01:39:49.505Z,22.22
2018-07-24T01:40:49.503Z,22.15
2018-07-24T01:41:49.505Z,22.20
2018-07-24T01:42:49.511Z,22.17
2018-07-24T01:43:49.511Z,22.20
2018-07-24T01:44:50.091Z,22.11
2018-07-24T01:45:49.500Z,22.22
2018-07-24T01:46:49.498Z,22.11
2018-07-24T01:47:49.500Z,22.11
2018-07-24T01:48:49.529Z,22.08
2018-07-24T01:49:49.528Z,22.11
2018-07-24T01:50:49.502Z,22.00
2018-07-24T01:51:49.497Z,22.07
2018-07-24T01:52:49.497Z,22.00
2018-07-24T01:53:49.497Z,21.92
2018-07-24T01:54:49.496Z,21.91
2018-07-24T01:55:49.496Z,21.80
2018-07-24T01:56:49.500Z,21.88
2018-07-24T01:57:49.492Z,21.77
2018-07-24T01:58:49.494Z,21.73
2018-07-24T01:59:49.489Z,21.79
2018-07-24T02:00:49.489Z,21.73
2018-07-24T02:01:49.489Z,21.70
2018-07-24T02:02:49.489Z,21.67
2018-07-24T02:03:49.488Z,21.70
2018-07-24T02:04:49.489Z,21.62
2018-07-24T02:05:49.488Z,21.64
2018-07-24T02:06:49.489Z,21.62
2018-07-24T02:07:49.492Z,21.50
2018-07-24T02:08:49.506Z,21.52
2018-07-24T02:09:49.484Z,21.51
2018-07-24T02:10:49.488Z,21.50
2018-07-24T02:11:49.483Z,21.58
2018-07-24T02:12:49.487Z,21.52
2018-07-24T02:13:49.484Z,21.43
2018-07-24T02:14:49.481Z,21.45
2018-07-24T02:15:49.483Z,21.37
2018-07-24T02:16:49.482Z,21.36
2018-07-24T02:17:49.477Z,21.48
2018-07-24T02:18:49.491Z,21.36
2018-07-24T02:19:49.481Z,21.35
2018-07-24T02:20:49.479Z,21.32
2018-07-24T02:21:49.475Z,21.20
2018-07-24T02:22:49.484Z,21.18
2018-07-24T02:23:49.476Z,21.24
2018-07-24T02:24:49.480Z,21.06
2018-07-24T02:25:49.480Z,21.07
2018-07-24T02:26:49.474Z,21.12
2018-07-24T02:27:49.487Z,21.12
2018-07-24T02:28:49.492Z,21.07
2018-07-24T02:29:49.475Z,21.07
2018-07-24T02:30:49.480Z,21.14
2018-07-24T02:31:49.498Z,21.09
2018-07-24T02:32:49.477Z,21.02
2018-07-24T02:33:49.473Z,21.15
2018-07-24T02:34:49.481Z,21.02
2018-07-24T02:35:49.469Z,21.11
2018-07-24T02:36:49.480Z,21.00
2018-07-24T02:37:49.465Z,20.96
2018-07-24T02:38:49.486Z,20.99
2018-07-24T02:39:49.479Z,20.90
2018-07-24T02:40:49.460Z,20.80
2018-07-24T02:41:49.462Z,20.72
2018-07-24T02:42:49.464Z,20.70
2018-07-24T02:43:49.466Z,20.62
2018-07-24T02:44:49.464Z,20.63
2018-07-24T02:45:49.462Z,20.67
2018-07-24T02:46:49.460Z,20.69
2018-07-24T02:47:49.473Z,20.59
2018-07-24T02:48:49.455Z,20.59
2018-07-24T02:49:49.462Z,20.66
2018-07-24T02:50:49.452Z,20.63
2018-07-24T02:51:49.459Z,20.63
2018-07-24T02:52:49.466Z,20.58
2018-07-24T02:53:49.476Z,20.66
2018-07-24T02:54:49.453Z,20.63
2018-07-24T02:55:49.461Z,20.52
2018-07-24T02:56:49.450Z,20.51
2018-07-24T02:57:49.452Z,20.41
2018-07-24T02:58:49.448Z,20.43
2018-07-24T02:59:49.456Z,20.56
2018-07-24T03:00:49.454Z,20.47
2018-07-24T03:01:49.447Z,20.44
2018-07-24T03:02:49.446Z,20.37
2018-07-24T03:03:49.448Z,20.39
2018-07-24T03:04:49.448Z,20.43
2018-07-24T03:05:49.459Z,20.44
2018-07-24T03:06:49.441Z,20.51
2018-07-24T03:07:49.441Z,20.37
2018-07-24T03:08:49.441Z,20.39
2018-07-24T03:09:49.443Z,20.29
2018-07-24T03:10:49.434Z,20.28
2018-07-24T03:11:49.435Z,20.26
2018-07-24T03:12:49.436Z,20.25
2018-07-24T03:13:49.436Z,20.16
2018-07-24T03:14:49.437Z,20.19
2018-07-24T03:15:49.429Z,20.13
2018-07-24T03:16:49.429Z,20.07
2018-07-24T03:17:49.431Z,20.02
2018-07-24T03:18:49.430Z,20.00
2018-07-24T03:19:49.427Z,19.92
2018-07-24T03:20:49.428Z,19.92
2018-07-24T03:21:49.424Z,19.81
2018-07-24T03:22:49.424Z,19.84
2018-07-24T03:23:49.429Z,19.84
2018-07-24T03:24:49.418Z,19.74
2018-07-24T03:25:49.426Z,19.64
2018-07-24T03:26:49.422Z,19.69
2018-07-24T03:27:49.416Z,19.67
2018-07-24T03:28:49.420Z,19.63
2018-07-24T03:29:49.426Z,19.62
2018-07-24T03:30:49.415Z,19.63
2018-07-24T03:31:50.160Z,19.54
2018-07-24T03:32:49.416Z,19.51
2018-07-24T03:33:49.434Z,19.49
2018-07-24T03:34:49.410Z,19.45
2018-07-24T03:35:49.413Z,19.44
2018-07-24T03:36:49.403Z,19.48
2018-07-24T03:37:49.405Z,19.36
2018-07-24T03:38:49.408Z,19.44
2018-07-24T03:39:49.405Z,19.41
2018-07-24T03:40:49.400Z,19.44
2018-07-24T03:41:49.408Z,19.40
2018-07-24T03:42:49.417Z,19.55
2018-07-24T03:43:49.401Z,19.40
2018-07-24T03:44:49.398Z,19.44
2018-07-24T03:45:49.392Z,19.39
2018-07-24T03:46:49.410Z,19.41
2018-07-24T03:47:49.395Z,19.31
2018-07-24T03:48:49.393Z,19.34
2018-07-24T03:49:49.387Z,19.31
2018-07-24T03:50:49.385Z,19.30
2018-07-24T03:51:49.386Z,19.34
2018-07-24T03:52:49.385Z,19.27
2018-07-24T03:53:49.384Z,19.34
2018-07-24T03:54:49.387Z,19.31
2018-07-24T03:55:49.384Z,19.33
2018-07-24T03:56:49.378Z,19.31
2018-07-24T03:57:49.427Z,19.31
2018-07-24T03:58:49.375Z,19.40
2018-07-24T03:59:49.374Z,19.30
2018-07-24T04:00:49.376Z,19.41
2018-07-24T04:01:49.367Z,19.40
2018-07-24T04:02:49.366Z,19.36
2018-07-24T04:03:49.389Z,19.36
2018-07-24T04:04:49.369Z,19.26
2018-07-24T04:05:49.369Z,19.34
2018-07-24T04:06:49.365Z,19.34
2018-07-24T04:07:49.365Z,19.34
2018-07-24T04:08:49.363Z,19.39
2018-07-24T04:09:49.374Z,19.33
2018-07-24T04:10:49.359Z,19.41
2018-07-24T04:11:49.359Z,19.44
2018-07-24T04:12:49.357Z,19.45
2018-07-24T04:13:49.353Z,19.44
2018-07-24T04:14:49.353Z,19.41
2018-07-24T04:15:49.354Z,19.44
2018-07-24T04:16:49.358Z,19.44
2018-07-24T04:17:49.353Z,19.41
2018-07-24T04:18:49.346Z,19.47
2018-07-24T04:19:49.346Z,19.37
2018-07-24T04:20:49.341Z,19.48
2018-07-24T04:21:49.340Z,19.45
2018-07-24T04:22:49.340Z,19.40
2018-07-24T04:23:49.341Z,19.40
2018-07-24T04:24:49.336Z,19.45
2018-07-24T04:25:49.335Z,19.40
2018-07-24T04:26:49.333Z,19.54
2018-07-24T04:27:49.329Z,19.48
2018-07-24T04:28:49.327Z,19.44
2018-07-24T04:29:49.331Z,19.48
2018-07-24T04:30:49.370Z,19.63
2018-07-24T04:31:49.329Z,19.64
2018-07-24T04:32:49.325Z,19.66
2018-07-24T04:33:49.350Z,19.76
2018-07-24T04:34:49.328Z,19.79
2018-07-24T04:35:49.324Z,19.85
2018-07-24T04:36:49.320Z,19.85
2018-07-24T04:37:49.319Z,19.89
2018-07-24T04:38:49.318Z,19.96
2018-07-24T04:39:49.362Z,19.94
2018-07-24T04:40:49.315Z,20.02
2018-07-24T04:41:49.317Z,20.00
2018-07-24T04:42:49.317Z,20.04
2018-07-24T04:43:49.307Z,20.02
2018-07-24T04:44:51.197Z,20.11
2018-07-24T04:45:49.301Z,20.06
2018-07-24T04:46:49.300Z,20.16
2018-07-24T04:47:49.307Z,20.07
2018-07-24T04:48:49.314Z,20.18
2018-07-24T04:49:49.298Z,20.29
2018-07-24T04:50:49.310Z,20.29
2018-07-24T04:51:49.297Z,20.32
2018-07-24T04:52:49.295Z,20.40
2018-07-24T04:53:49.295Z,20.41
2018-07-24T04:54:49.294Z,20.52
2018-07-24T04:55:49.293Z,20.50
2018-07-24T04:56:49.289Z,20.65
2018-07-24T04:57:49.288Z,20.67
2018-07-24T04:58:49.291Z,20.70
2018-07-24T04:59:49.285Z,20.72
2018-07-24T05:00:49.286Z,20.90
2018-07-24T05:01:49.291Z,20.93
2018-07-24T05:02:49.281Z,21.05
2018-07-24T05:03:49.280Z,21.07
2018-07-24T05:04:49.284Z,21.22
2018-07-24T05:05:49.282Z,21.24
2018-07-24T05:06:49.275Z,21.22
2018-07-24T05:07:49.275Z,21.35
2018-07-24T05:08:49.279Z,21.35
2018-07-24T05:09:49.289Z,21.54
2018-07-24T05:10:49.276Z,21.55
2018-07-24T05:11:49.273Z,21.72
2018-07-24T05:12:49.275Z,21.79
2018-07-24T05:13:49.268Z,21.79
2018-07-24T05:14:49.270Z,21.89
2018-07-24T05:15:49.273Z,21.95
2018-07-24T05:16:49.300Z,21.98
2018-07-24T05:17:49.275Z,22.10
2018-07-24T05:18:49.266Z,22.11
2018-07-24T05:19:49.275Z,22.23
2018-07-24T05:20:49.269Z,22.28
2018-07-24T05:21:49.269Z,22.44
2018-07-24T05:22:49.280Z,22.43
2018-07-24T05:23:49.294Z,22.65
2018-07-24T05:24:49.272Z,22.68
2018-07-24T05:25:49.289Z,22.80
2018-07-24T05:26:49.262Z,22.81
2018-07-24T05:27:49.270Z,22.91
2018-07-24T05:28:49.273Z,22.98
2018-07-24T05:29:49.270Z,23.09
2018-07-24T05:30:49.269Z,23.21
2018-07-24T05:31:49.269Z,23.24
2018-07-24T05:32:49.275Z,23.18
2018-07-24T05:33:50.232Z,23.36
2018-07-24T05:34:49.266Z,23.44
2018-07-24T05:35:49.269Z,23.61
2018-07-24T05:36:49.276Z,23.59
2018-07-24T05:37:49.297Z,23.76
2018-07-24T05:38:49.319Z,23.74
2018-07-24T05:39:49.279Z,23.84
2018-07-24T05:40:49.283Z,23.87
2018-07-24T05:41:49.275Z,24.01
2018-07-24T05:42:49.279Z,24.06
2018-07-24T05:43:49.280Z,24.18
2018-07-24T05:44:49.279Z,24.28
2018-07-24T05:45:49.288Z,24.43
2018-07-24T05:46:49.285Z,24.43
2018-07-24T05:47:49.284Z,24.69
2018-07-24T05:48:49.313Z,24.77
2018-07-24T05:49:49.286Z,24.89
2018-07-24T05:50:49.291Z,24.99
2018-07-24T05:51:49.291Z,25.18
2018-07-24T05:52:49.295Z,25.22
2018-07-24T05:53:49.293Z,25.26
2018-07-24T05:54:49.302Z,25.31
2018-07-24T05:55:49.304Z,25.43
2018-07-24T05:56:49.299Z,25.44
2018-07-24T05:57:49.319Z,25.32
2018-07-24T05:58:49.319Z,25.40
2018-07-24T05:59:49.311Z,25.40
2018-07-24T06:00:49.330Z,25.53
2018-07-24T06:01:49.316Z,25.54
2018-07-24T06:02:49.317Z,25.65
2018-07-24T06:03:49.316Z,25.78
2018-07-24T06:04:49.324Z,25.87
2018-07-24T06:05:49.327Z,26.02
2018-07-24T06:06:49.331Z,26.16
2018-07-24T06:07:49.336Z,26.26
2018-07-24T06:08:49.341Z,26.40
2018-07-24T06:09:49.346Z,26.33
2018-07-24T06:10:49.343Z,26.44
2018-07-24T06:11:49.345Z,26.59
2018-07-24T06:12:49.347Z,26.70
2018-07-24T06:13:49.359Z,26.80
2018-07-24T06:14:49.359Z,26.93
2018-07-24T06:15:49.364Z,27.00
2018-07-24T06:16:49.398Z,27.21
2018-07-24T06:17:49.366Z,27.25
2018-07-24T06:18:49.371Z,27.44
2018-07-24T06:19:49.382Z,27.49
2018-07-24T06:20:49.379Z,27.48
2018-07-24T06:21:49.407Z,27.51
2018-07-24T06:22:49.385Z,27.60
2018-07-24T06:23:49.390Z,27.64
2018-07-24T06:24:49.396Z,27.67
2018-07-24T06:25:49.400Z,27.70
2018-07-24T06:26:49.401Z,27.58
2018-07-24T06:27:49.418Z,27.55
2018-07-24T06:28:49.416Z,27.67
2018-07-24T06:29:49.423Z,27.59
2018-07-24T06:30:49.423Z,27.68
2018-07-24T06:31:49.425Z,27.74
2018-07-24T06:32:49.431Z,27.74
2018-07-24T06:33:49.434Z,27.77
2018-07-24T06:34:49.439Z,27.86
2018-07-24T06:35:49.445Z,28.05
2018-07-24T06:36:49.451Z,28.19
2018-07-24T06:37:49.451Z,28.33
2018-07-24T06:38:49.460Z,28.60
2018-07-24T06:39:49.465Z,28.74
2018-07-24T06:40:49.468Z,28.79
2018-07-24T06:41:49.478Z,28.85
2018-07-24T06:42:49.476Z,29.04
2018-07-24T06:43:49.490Z,29.12
2018-07-24T06:44:49.497Z,29.22
2018-07-24T06:45:49.496Z,29.19
2018-07-24T06:46:49.496Z,29.17
2018-07-24T06:47:49.505Z,29.23
2018-07-24T06:48:49.505Z,29.35
2018-07-24T06:49:49.514Z,29.39
2018-07-24T06:50:49.529Z,29.44
2018-07-24T06:51:49.573Z,29.42
2018-07-24T06:52:49.533Z,29.39
2018-07-24T06:53:49.536Z,29.44
2018-07-24T06:54:49.545Z,29.47
2018-07-24T06:55:49.547Z,29.42
2018-07-24T06:56:49.558Z,29.44
2018-07-24T06:57:49.559Z,29.45
2018-07-24T06:58:49.570Z,29.59
2018-07-24T06:59:49.576Z,29.76
2018-07-24T07:00:49.583Z,30.16
2018-07-24T07:01:49.590Z,30.43
2018-07-24T07:02:49.602Z,30.55
2018-07-24T07:03:50.294Z,30.63
2018-07-24T07:04:49.605Z,30.51
2018-07-24T07:05:49.613Z,30.34
2018-07-24T07:06:49.619Z,30.08
2018-07-24T07:07:49.620Z,30.10
2018-07-24T07:08:49.623Z,29.88
2018-07-24T07:09:49.629Z,29.86
2018-07-24T07:10:49.642Z,29.65
2018-07-24T07:11:49.648Z,29.56
2018-07-24T07:12:50.307Z,29.60
2018-07-24T07:13:50.304Z,29.44
2018-07-24T07:14:49.666Z,29.57
2018-07-24T07:15:49.678Z,29.72
2018-07-24T07:16:49.678Z,29.75
2018-07-24T07:17:49.693Z,29.93
2018-07-24T07:18:49.694Z,30.16
2018-07-24T07:19:49.710Z,30.54
2018-07-24T07:20:49.708Z,30.83
2018-07-24T07:21:49.713Z,30.81
2018-07-24T07:22:49.730Z,30.94
2018-07-24T07:23:49.729Z,31.05
2018-07-24T07:24:50.309Z,31.24
2018-07-24T07:25:51.323Z,31.56
2018-07-24T07:26:49.744Z,31.99
2018-07-24T07:27:49.752Z,32.04
2018-07-24T07:28:49.765Z,32.18
2018-07-24T07:29:49.776Z,32.31
2018-07-24T07:30:49.779Z,32.31
2018-07-24T07:31:49.794Z,32.36
2018-07-24T07:32:49.818Z,32.27
2018-07-24T07:33:49.838Z,32.49
2018-07-24T07:34:49.810Z,32.67
2018-07-24T07:35:49.822Z,32.90
2018-07-24T07:36:49.827Z,33.09
2018-07-24T07:37:49.834Z,33.07
2018-07-24T07:38:49.847Z,33.00
2018-07-24T07:39:49.846Z,32.92
2018-07-24T07:40:49.853Z,33.01
2018-07-24T07:41:49.862Z,33.02
2018-07-24T07:42:49.866Z,33.05
2018-07-24T07:43:49.882Z,33.23
2018-07-24T07:44:49.885Z,33.62
2018-07-24T07:45:49.890Z,33.79
2018-07-24T07:46:49.909Z,33.99
2018-07-24T07:47:49.917Z,34.10
2018-07-24T07:48:49.950Z,34.10
2018-07-24T07:49:49.927Z,34.08
2018-07-24T07:50:49.966Z,33.81
2018-07-24T07:51:49.944Z,33.42
2018-07-24T07:52:49.951Z,32.85
2018-07-24T07:53:49.968Z,32.48
2018-07-24T07:54:49.973Z,32.14
2018-07-24T07:55:49.988Z,31.85
2018-07-24T07:56:49.990Z,31.74
2018-07-24T07:57:50.009Z,31.90
2018-07-24T07:58:50.068Z,32.01
2018-07-24T07:59:50.013Z,32.64
2018-07-24T08:00:50.021Z,33.05
2018-07-24T08:01:50.034Z,33.57
2018-07-24T08:02:50.049Z,33.67
2018-07-24T08:03:50.051Z,33.83
2018-07-24T08:04:50.061Z,33.98
2018-07-24T08:05:50.084Z,34.02
2018-07-24T08:06:50.090Z,34.36
2018-07-24T08:07:50.091Z,34.85
2018-07-24T08:08:50.100Z,35.08
2018-07-24T08:09:50.102Z,35.33
2018-07-24T08:10:50.114Z,35.15
2018-07-24T08:11:50.121Z,34.96
2018-07-24T08:12:50.131Z,35.02
2018-07-24T08:13:50.152Z,34.99
2018-07-24T08:14:50.156Z,35.11
2018-07-24T08:15:50.167Z,35.67
2018-07-24T08:16:50.187Z,35.95
2018-07-24T08:17:50.180Z,35.97
2018-07-24T08:18:50.605Z,34.89
2018-07-24T08:19:50.223Z,34.78
2018-07-24T08:20:50.213Z,34.62
2018-07-24T08:21:50.221Z,34.83
2018-07-24T08:22:50.232Z,35.22
2018-07-24T08:23:50.246Z,35.63
2018-07-24T08:24:50.253Z,35.74
2018-07-24T08:25:50.261Z,35.79
2018-07-24T08:26:50.270Z,36.01
2018-07-24T08:27:50.317Z,36.07
2018-07-24T08:28:50.297Z,36.36
2018-07-24T08:29:50.306Z,36.62
2018-07-24T08:30:50.313Z,36.79
2018-07-24T08:31:50.335Z,36.92
2018-07-24T08:32:50.341Z,36.83
2018-07-24T08:33:50.345Z,36.77
2018-07-24T08:34:50.370Z,36.23
2018-07-24T08:35:50.363Z,35.92
2018-07-24T08:36:50.388Z,35.85
2018-07-24T08:37:50.382Z,35.74
2018-07-24T08:38:50.397Z,35.42
2018-07-24T08:39:50.403Z,34.86
2018-07-24T08:40:50.410Z,34.92
2018-07-24T08:41:50.421Z,35.18
2018-07-24T08:42:50.436Z,35.73
2018-07-24T08:43:50.462Z,36.00
2018-07-24T08:44:50.475Z,36.16
2018-07-24T08:45:50.472Z,36.36
2018-07-24T08:46:50.478Z,36.57
2018-07-24T08:47:50.489Z,36.67
2018-07-24T08:48:50.507Z,36.35
2018-07-24T08:49:50.510Z,36.23
2018-07-24T08:50:50.554Z,35.95
2018-07-24T08:51:50.536Z,36.00
2018-07-24T08:52:50.735Z,36.24
2018-07-24T08:53:50.820Z,36.28
2018-07-24T08:54:50.986Z,35.90
2018-07-24T08:55:50.603Z,35.90
2018-07-24T08:56:50.596Z,36.31
2018-07-24T08:57:50.618Z,36.80
2018-07-24T08:58:50.615Z,37.08
2018-07-24T08:59:50.627Z,37.32
2018-07-24T09:00:50.642Z,37.56
2018-07-24T09:01:50.656Z,37.92
2018-07-24T09:02:50.665Z,38.02
2018-07-24T09:03:50.705Z,38.06
2018-07-24T09:04:50.686Z,38.04
2018-07-24T09:05:50.713Z,38.08
2018-07-24T09:06:50.709Z,38.08
2018-07-24T09:07:50.723Z,37.74
2018-07-24T09:08:52.374Z,37.21
2018-07-24T09:09:50.744Z,36.27
2018-07-24T09:10:50.759Z,36.00
2018-07-24T09:11:50.770Z,35.36
2018-07-24T09:12:50.785Z,34.85
2018-07-24T09:13:50.796Z,34.58
2018-07-24T09:14:50.807Z,34.50
2018-07-24T09:15:50.822Z,34.52
2018-07-24T09:16:50.830Z,34.70
2018-07-24T09:17:50.846Z,34.71
2018-07-24T09:18:50.852Z,35.23
2018-07-24T09:19:50.871Z,35.76
2018-07-24T09:20:50.894Z,36.12
2018-07-24T09:21:50.891Z,36.59
2018-07-24T09:22:50.908Z,36.91
2018-07-24T09:23:50.922Z,37.26
2018-07-24T09:24:50.927Z,37.26
2018-07-24T09:25:50.948Z,37.26
2018-07-24T09:26:51.009Z,37.14
2018-07-24T09:27:50.970Z,37.71
2018-07-24T09:28:50.978Z,38.12
2018-07-24T09:29:50.992Z,38.62
2018-07-24T09:30:51.004Z,38.97
2018-07-24T09:31:51.015Z,39.18
2018-07-24T09:32:51.030Z,39.44
2018-07-24T09:33:51.047Z,39.44
2018-07-24T09:34:51.057Z,39.41
2018-07-24T09:35:51.080Z,39.25
2018-07-24T09:36:51.084Z,38.92
2018-07-24T09:37:51.117Z,38.73
2018-07-24T09:38:51.106Z,38.34
2018-07-24T09:39:51.123Z,38.38
2018-07-24T09:40:51.135Z,38.38
2018-07-24T09:41:51.151Z,38.82
2018-07-24T09:42:51.161Z,38.42
2018-07-24T09:43:51.177Z,38.39
2018-07-24T09:44:51.189Z,37.90
2018-07-24T09:45:51.262Z,37.21
2018-07-24T09:46:51.212Z,36.47
2018-07-24T09:47:51.248Z,36.39
2018-07-24T09:48:51.240Z,36.64
2018-07-24T09:49:51.258Z,37.11
2018-07-24T09:50:51.264Z,37.37
2018-07-24T09:51:51.301Z,37.32
2018-07-24T09:52:51.297Z,37.30
2018-07-24T09:53:51.309Z,37.47
2018-07-24T09:54:51.323Z,37.71
2018-07-24T09:55:51.336Z,38.05
2018-07-24T09:56:51.352Z,38.08
2018-07-24T09:57:51.362Z,38.09
2018-07-24T09:58:51.376Z,37.84
2018-07-24T09:59:51.388Z,37.72
2018-07-24T10:00:51.410Z,37.80
2018-07-24T10:01:51.418Z,37.68
2018-07-24T10:02:51.443Z,37.74
2018-07-24T10:03:51.445Z,38.60
2018-07-24T10:04:51.461Z,39.40
2018-07-24T10:05:51.476Z,39.77
2018-07-24T10:06:51.492Z,39.81
2018-07-24T10:07:51.521Z,40.09
2018-07-24T10:08:51.512Z,40.27
2018-07-24T10:09:51.539Z,40.26
2018-07-24T10:10:51.558Z,39.81
2018-07-24T10:11:51.561Z,39.11
2018-07-24T10:12:51.612Z,38.95
2018-07-24T10:13:51.587Z,38.83
2018-07-24T10:14:52.411Z,38.62
2018-07-24T10:15:51.608Z,38.33
2018-07-24T10:16:51.637Z,38.71
2018-07-24T10:17:51.638Z,38.97
2018-07-24T10:18:51.691Z,39.29
2018-07-24T10:19:51.691Z,39.41
2018-07-24T10:20:51.684Z,39.38
2018-07-24T10:21:51.699Z,39.11
2018-07-24T10:22:51.709Z,38.57
2018-07-24T10:23:51.726Z,38.08
2018-07-24T10:24:51.740Z,37.65
2018-07-24T10:25:51.756Z,37.47
2018-07-24T10:26:51.768Z,37.39
2018-07-24T10:27:51.785Z,37.74
2018-07-24T10:28:51.795Z,38.09
2018-07-24T10:29:51.843Z,38.39
2018-07-24T10:30:51.826Z,38.40
2018-07-24T10:31:51.856Z,38.60
2018-07-24T10:32:51.864Z,38.73
2018-07-24T10:33:51.883Z,38.87
2018-07-24T10:34:51.884Z,38.73
2018-07-24T10:35:51.920Z,38.26
2018-07-24T10:36:51.913Z,37.51
2018-07-24T10:37:51.926Z,36.98
2018-07-24T10:38:51.946Z,36.27
2018-07-24T10:39:51.971Z,35.41
2018-07-24T10:40:51.970Z,34.93
2018-07-24T10:41:51.992Z,34.89
2018-07-24T10:42:52.023Z,35.07
2018-07-24T10:43:52.018Z,35.45
2018-07-24T10:44:52.034Z,34.83
2018-07-24T10:45:52.051Z,34.33
2018-07-24T10:46:52.060Z,34.05
2018-07-24T10:47:52.086Z,33.87
2018-07-24T10:48:52.094Z,33.53
2018-07-24T10:49:52.103Z,33.52
2018-07-24T10:50:52.136Z,33.55
2018-07-24T10:51:52.152Z,33.86
2018-07-24T10:52:52.146Z,35.34
2018-07-24T10:53:52.157Z,36.52
2018-07-24T10:54:52.169Z,36.91
2018-07-24T10:55:52.186Z,37.51
2018-07-24T10:56:52.198Z,38.05
2018-07-24T10:57:52.208Z,38.12
2018-07-24T10:58:52.228Z,38.20
2018-07-24T10:59:52.239Z,38.23
2018-07-24T11:00:52.256Z,38.08
2018-07-24T11:01:52.267Z,38.30
2018-07-24T11:02:52.282Z,38.02
2018-07-24T11:03:52.296Z,37.23
2018-07-24T11:04:52.313Z,36.47
2018-07-24T11:05:52.320Z,36.51
2018-07-24T11:06:52.334Z,36.88
2018-07-24T11:07:52.365Z,36.61
2018-07-24T11:08:52.362Z,36.64
2018-07-24T11:09:52.374Z,36.83
2018-07-24T11:10:52.390Z,37.02
2018-07-24T11:11:52.402Z,37.13
2018-07-24T11:12:52.422Z,36.79
2018-07-24T11:13:52.429Z,36.74
2018-07-24T11:14:52.450Z,36.47
2018-07-24T11:15:52.458Z,36.28
2018-07-24T11:16:52.498Z,35.89
2018-07-24T11:17:52.502Z,36.09
2018-07-24T11:18:53.441Z,36.45
2018-07-24T11:19:52.517Z,36.98
2018-07-24T11:20:52.528Z,37.72
2018-07-24T11:21:52.568Z,38.76
2018-07-24T11:22:52.704Z,39.09
2018-07-24T11:23:52.572Z,38.27
2018-07-24T11:24:52.580Z,37.59
2018-07-24T11:25:52.605Z,36.99
2018-07-24T11:26:52.612Z,36.57
2018-07-24T11:27:52.625Z,36.40
2018-07-24T11:28:52.644Z,36.36
2018-07-24T11:29:52.652Z,36.08
2018-07-24T11:30:52.673Z,36.14
2018-07-24T11:31:52.681Z,36.05
2018-07-24T11:32:52.735Z,35.97
2018-07-24T11:33:52.726Z,35.70
2018-07-24T11:34:52.727Z,34.97
2018-07-24T11:35:52.861Z,34.55
2018-07-24T11:36:52.750Z,34.42
2018-07-24T11:37:52.760Z,34.38
2018-07-24T11:38:52.775Z,34.55
2018-07-24T11:39:52.788Z,34.71
2018-07-24T11:40:52.806Z,35.22
2018-07-24T11:41:52.817Z,36.04
2018-07-24T11:42:52.845Z,37.20
2018-07-24T11:43:52.849Z,38.05
2018-07-24T11:44:52.862Z,38.62
2018-07-24T11:45:52.870Z,39.00
2018-07-24T11:46:52.885Z,39.37
2018-07-24T11:47:52.902Z,39.25
2018-07-24T11:48:52.933Z,38.71
2018-07-24T11:49:52.947Z,39.00
2018-07-24T11:50:52.943Z,39.34
2018-07-24T11:51:52.969Z,39.58
2018-07-24T11:52:52.967Z,39.71
2018-07-24T11:53:52.982Z,39.97
2018-07-24T11:54:53.021Z,38.69
2018-07-24T11:55:53.011Z,37.25
2018-07-24T11:56:53.023Z,36.23
2018-07-24T11:57:53.035Z,35.76
2018-07-24T11:58:53.052Z,35.41
2018-07-24T11:59:53.061Z,35.15
2018-07-24T12:00:53.080Z,35.04
2018-07-24T12:01:53.090Z,35.00
2018-07-24T12:02:53.105Z,34.99
2018-07-24T12:03:53.114Z,35.23
2018-07-24T12:04:53.182Z,35.45
2018-07-24T12:05:53.142Z,35.17
2018-07-24T12:06:53.173Z,34.99
2018-07-24T12:07:53.185Z,34.97
2018-07-24T12:08:53.180Z,35.52
2018-07-24T12:09:53.193Z,36.58
2018-07-24T12:10:53.210Z,37.08
2018-07-24T12:11:53.269Z,37.26
2018-07-24T12:12:53.235Z,37.49
2018-07-24T12:13:53.249Z,37.55
2018-07-24T12:14:53.356Z,38.05
2018-07-24T12:15:53.281Z,38.06
2018-07-24T12:16:53.283Z,37.96
2018-07-24T12:17:53.299Z,37.32
2018-07-24T12:18:53.307Z,36.39
2018-07-24T12:19:53.328Z,36.16
2018-07-24T12:20:53.353Z,35.80
2018-07-24T12:21:53.353Z,35.51
2018-07-24T12:22:53.361Z,35.33
2018-07-24T12:23:53.383Z,35.24
2018-07-24T12:24:53.390Z,35.33
2018-07-24T12:25:53.406Z,35.53
2018-07-24T12:26:53.419Z,35.60
2018-07-24T12:27:53.430Z,35.49
2018-07-24T12:28:53.468Z,35.68
2018-07-24T12:29:53.460Z,35.68
2018-07-24T12:30:53.470Z,35.49
2018-07-24T12:31:53.484Z,35.22
2018-07-24T12:32:53.507Z,35.15
2018-07-24T12:33:53.507Z,34.95
2018-07-24T12:34:53.521Z,34.75
2018-07-24T12:35:53.541Z,34.86
2018-07-24T12:36:53.548Z,35.14
2018-07-24T12:37:53.561Z,35.14
2018-07-24T12:38:53.570Z,35.23
2018-07-24T12:39:53.589Z,35.26
2018-07-24T12:40:53.604Z,35.23
2018-07-24T12:41:53.615Z,35.34
2018-07-24T12:42:53.630Z,35.19
2018-07-24T12:43:53.640Z,35.02
2018-07-24T12:44:53.649Z,34.83
2018-07-24T12:45:53.673Z,34.86
2018-07-24T12:46:53.676Z,34.80
2018-07-24T12:47:53.689Z,34.92
2018-07-24T12:48:53.703Z,34.99
2018-07-24T12:50:01.861Z,35.12
2018-07-24T12:51:47.333Z,35.33
2018-07-24T12:52:48.224Z,35.51
2018-07-24T12:54:40.997Z,35.89